Time;durP1;ratioP1;P1;durP2;ratioP2;P2;SDS_P1;SDS_P2;PMS_P1;PMS_P2;Temp;Humidity;BMP_temperature;BMP_pressure;BME280_temperature;BME280_humidity;BME280_pressure;Samples;Min_cycle;Max_cycle;Signal;HPM_P1;HPM_P2
2022/03/26 00:00:00;;;;;;;207.60;113.18;;;;;;;;;;5027336;28;20513;-63
2022/03/26 00:02:28;;;;;;;220.43;116.35;;;;;;;;;;5026131;28;20076;-63
2022/03/26 00:04:54;;;;;;;218.27;116.22;;;;;;;;;;5026996;28;20053;-63
2022/03/26 00:07:20;;;;;;;224.38;118.47;;;;;;;;;;5025289;28;20041;-63
2022/03/26 00:09:46;;;;;;;229.13;120.28;;;;;;;;;;5024826;28;20041;-63
2022/03/26 00:12:13;;;;;;;259.08;129.43;;;;;;;;;;5026942;28;20080;-63
2022/03/26 00:14:39;;;;;;;246.90;126.20;;;;;;;;;;5026029;28;20479;-63
2022/03/26 00:17:05;;;;;;;270.13;132.90;;;;;;;;;;5025257;28;20073;-62
2022/03/26 00:19:31;;;;;;;269.90;132.02;;;;;;;;;;5039252;28;20042;-63
2022/03/26 00:21:57;;;;;;;267.20;130.48;;;;;;;;;;5025459;28;20132;-64
2022/03/26 00:24:23;;;;;;;270.33;132.18;;;;;;;;;;5025992;28;20056;-63
2022/03/26 00:26:50;;;;;;;266.45;130.98;;;;;;;;;;5027254;28;20042;-62
2022/03/26 00:29:16;;;;;;;279.13;136.02;;;;;;;;;;5025780;28;20045;-62
2022/03/26 00:31:42;;;;;;;302.20;143.25;;;;;;;;;;5026716;28;20045;-63
2022/03/26 00:34:09;;;;;;;302.05;143.27;;;;;;;;;;5026124;28;20112;-63
2022/03/26 00:36:35;;;;;;;306.55;142.70;;;;;;;;;;5026470;28;20049;-63
2022/03/26 00:39:02;;;;;;;315.75;145.30;;;;;;;;;;5025103;28;20234;-65
2022/03/26 00:41:31;;;;;;;317.88;146.77;;;;;;;;;;5024987;28;20056;-64
2022/03/26 00:43:57;;;;;;;327.15;147.88;;;;;;;;;;5008194;28;20037;-62
2022/03/26 00:46:23;;;;;;;333.65;150.50;;;;;;;;;;5026512;28;20556;-64
2022/03/26 00:48:49;;;;;;;321.27;149.75;;;;;;;;;;5026727;28;20045;-62
2022/03/26 00:51:16;;;;;;;334.42;150.82;;;;;;;;;;5025556;28;20044;-60
2022/03/26 00:53:42;;;;;;;319.23;148.00;;;;;;;;;;5027784;28;20530;-63
2022/03/26 00:56:08;;;;;;;305.02;142.95;;;;;;;;;;5024957;28;20542;-62
2022/03/26 00:58:34;;;;;;;320.45;146.95;;;;;;;;;;5025110;28;20500;-64
2022/03/26 01:01:19;;;;;;;322.67;151.20;;;;;;;;;;5027044;28;20064;-63
2022/03/26 01:03:45;;;;;;;308.33;141.88;;;;;;;;;;5024829;28;20041;-63
2022/03/26 01:06:11;;;;;;;314.63;145.68;;;;;;;;;;5041624;28;20030;-63
2022/03/26 01:08:37;;;;;;;309.15;140.80;;;;;;;;;;5026393;28;20049;-63
2022/03/26 01:11:03;;;;;;;302.17;141.70;;;;;;;;;;5023752;28;20045;-64
2022/03/26 01:13:31;;;;;;;287.65;135.88;;;;;;;;;;5025090;28;20087;-64
2022/03/26 01:15:58;;;;;;;353.98;151.70;;;;;;;;;;5026579;28;20554;-62
2022/03/26 01:18:24;;;;;;;338.25;148.02;;;;;;;;;;5025103;28;20519;-64
2022/03/26 01:20:50;;;;;;;331.77;143.15;;;;;;;;;;5026350;28;20048;-63
2022/03/26 01:23:19;;;;;;;323.67;140.82;;;;;;;;;;5026219;28;20065;-62
2022/03/26 01:25:46;;;;;;;324.35;143.45;;;;;;;;;;5008672;28;20044;-62
2022/03/26 01:28:12;;;;;;;331.58;142.82;;;;;;;;;;5026709;28;20041;-63
2022/03/26 01:30:38;;;;;;;328.98;143.52;;;;;;;;;;5006717;28;20046;-62
2022/03/26 01:33:04;;;;;;;357.13;147.85;;;;;;;;;;5025581;28;20136;-63
2022/03/26 01:35:30;;;;;;;362.95;149.68;;;;;;;;;;5024313;28;20044;-63
2022/03/26 01:37:56;;;;;;;365.73;148.77;;;;;;;;;;5026446;28;20053;-63
2022/03/26 01:40:22;;;;;;;357.00;146.98;;;;;;;;;;5025642;28;20072;-61
2022/03/26 01:42:48;;;;;;;400.55;161.25;;;;;;;;;;5026276;28;20037;-61
2022/03/26 01:45:15;;;;;;;400.02;154.98;;;;;;;;;;5026427;28;20049;-61
2022/03/26 01:47:41;;;;;;;399.38;158.20;;;;;;;;;;5025982;28;20384;-63
2022/03/26 01:50:07;;;;;;;392.45;154.75;;;;;;;;;;5023767;28;20510;-62
2022/03/26 01:52:33;;;;;;;411.88;160.50;;;;;;;;;;5025396;28;20045;-61
2022/03/26 01:55:00;;;;;;;401.95;156.02;;;;;;;;;;5027027;28;20402;-63
2022/03/26 01:57:26;;;;;;;383.40;154.40;;;;;;;;;;5009062;28;20045;-62
2022/03/26 01:59:53;;;;;;;390.52;153.43;;;;;;;;;;5026362;28;20041;-62
2022/03/26 02:02:19;;;;;;;410.75;163.32;;;;;;;;;;5030436;28;20399;-63
2022/03/26 02:04:45;;;;;;;391.75;155.48;;;;;;;;;;5029923;28;20086;-61
2022/03/26 02:07:11;;;;;;;406.42;160.88;;;;;;;;;;5031158;28;20037;-60
2022/03/26 02:09:37;;;;;;;386.30;153.00;;;;;;;;;;4996919;28;20037;-61
2022/03/26 02:12:04;;;;;;;426.77;162.13;;;;;;;;;;5012796;28;20093;-62
2022/03/26 02:14:30;;;;;;;417.75;163.32;;;;;;;;;;5028655;28;20119;-61
2022/03/26 02:16:56;;;;;;;387.60;163.43;;;;;;;;;;5030084;28;20037;-62
2022/03/26 02:19:22;;;;;;;397.48;156.90;;;;;;;;;;5030384;28;20045;-63
2022/03/26 02:21:49;;;;;;;380.98;156.85;;;;;;;;;;5029894;28;20568;-62
2022/03/26 02:24:16;;;;;;;377.05;154.20;;;;;;;;;;5028868;28;20959;-63
2022/03/26 02:26:42;;;;;;;408.52;161.27;;;;;;;;;;5029636;28;20052;-62
2022/03/26 02:29:12;;;;;;;411.52;159.15;;;;;;;;;;5028714;28;20034;-64
2022/03/26 02:31:39;;;;;;;416.77;163.88;;;;;;;;;;5027045;28;20054;-63
2022/03/26 02:34:06;;;;;;;411.00;159.82;;;;;;;;;;5011637;28;20041;-63
2022/03/26 02:36:33;;;;;;;410.75;159.15;;;;;;;;;;5028909;28;20080;-63
2022/03/26 02:39:00;;;;;;;362.48;150.15;;;;;;;;;;5012369;28;20543;-62
2022/03/26 02:41:26;;;;;;;398.05;158.07;;;;;;;;;;5029673;28;20777;-63
2022/03/26 02:43:52;;;;;;;403.55;161.38;;;;;;;;;;5011013;28;20076;-62
2022/03/26 02:46:19;;;;;;;388.73;155.70;;;;;;;;;;5027558;28;20041;-63
2022/03/26 02:48:45;;;;;;;388.83;155.77;;;;;;;;;;5029883;28;20038;-63
2022/03/26 02:51:11;;;;;;;398.33;157.75;;;;;;;;;;5029751;28;20068;-63
2022/03/26 02:53:37;;;;;;;398.17;158.93;;;;;;;;;;5027357;28;20358;-63
2022/03/26 02:56:03;;;;;;;403.55;158.95;;;;;;;;;;5028311;28;20080;-64
2022/03/26 02:58:29;;;;;;;405.10;160.95;;;;;;;;;;5027619;28;20038;-63
2022/03/26 03:00:57;;;;;;;418.83;169.15;;;;;;;;;;5027939;28;20056;-61
2022/03/26 03:03:23;;;;;;;418.60;167.05;;;;;;;;;;5027594;28;20046;-62
2022/03/26 03:05:49;;;;;;;419.63;167.80;;;;;;;;;;5028076;28;20507;-62
2022/03/26 03:08:16;;;;;;;422.95;170.23;;;;;;;;;;5008656;28;20046;-63
2022/03/26 03:10:45;;;;;;;418.00;166.15;;;;;;;;;;5008799;28;20042;-62
2022/03/26 03:13:11;;;;;;;409.70;163.93;;;;;;;;;;5042079;28;20049;-62
2022/03/26 03:15:38;;;;;;;408.70;165.10;;;;;;;;;;5010279;28;20052;-63
2022/03/26 03:18:04;;;;;;;424.75;169.45;;;;;;;;;;5026508;28;20045;-62
2022/03/26 03:20:31;;;;;;;437.83;172.30;;;;;;;;;;5018245;28;20037;-62
2022/03/26 03:22:57;;;;;;;428.02;171.25;;;;;;;;;;5026963;28;20095;-63
2022/03/26 03:25:26;;;;;;;420.70;164.20;;;;;;;;;;5010804;28;20076;-63
2022/03/26 03:27:52;;;;;;;424.25;166.57;;;;;;;;;;5029151;28;20038;-63
2022/03/26 03:30:18;;;;;;;406.55;159.75;;;;;;;;;;5009934;28;20587;-64
2022/03/26 03:32:45;;;;;;;428.10;164.63;;;;;;;;;;5028761;28;20370;-63
2022/03/26 03:35:11;;;;;;;433.52;163.50;;;;;;;;;;5027682;28;20075;-63
2022/03/26 03:37:38;;;;;;;411.30;155.95;;;;;;;;;;5028935;28;20115;-63
2022/03/26 03:40:04;;;;;;;420.50;158.48;;;;;;;;;;5027658;28;20503;-63
2022/03/26 03:42:30;;;;;;;419.17;157.23;;;;;;;;;;5026840;28;20056;-64
2022/03/26 03:44:56;;;;;;;417.42;154.07;;;;;;;;;;5027663;28;20125;-62
2022/03/26 03:47:23;;;;;;;435.05;160.48;;;;;;;;;;5028931;28;20042;-63
2022/03/26 03:49:49;;;;;;;445.20;164.63;;;;;;;;;;5029078;28;20052;-62
2022/03/26 03:52:15;;;;;;;459.63;170.68;;;;;;;;;;5027367;28;20763;-64
2022/03/26 03:54:41;;;;;;;480.58;176.95;;;;;;;;;;5026853;28;20034;-62
2022/03/26 03:57:07;;;;;;;454.83;166.73;;;;;;;;;;5028859;28;20535;-62
2022/03/26 03:59:33;;;;;;;449.52;165.63;;;;;;;;;;5027050;28;20244;-64
2022/03/26 04:01:59;;;;;;;470.52;174.07;;;;;;;;;;5029019;28;20043;-63
2022/03/26 04:04:25;;;;;;;462.15;169.40;;;;;;;;;;5043428;28;20132;-63
2022/03/26 04:06:51;;;;;;;457.60;170.38;;;;;;;;;;5026996;28;20405;-64
2022/03/26 04:09:17;;;;;;;455.38;172.32;;;;;;;;;;5027240;28;20507;-63
2022/03/26 04:11:44;;;;;;;475.02;173.02;;;;;;;;;;5010526;28;20577;-62
2022/03/26 04:14:10;;;;;;;497.40;178.75;;;;;;;;;;5010796;28;20045;-62
2022/03/26 04:16:36;;;;;;;482.35;172.10;;;;;;;;;;5026938;28;20052;-62
2022/03/26 04:19:02;;;;;;;474.77;173.10;;;;;;;;;;5027575;28;20446;-63
2022/03/26 04:21:28;;;;;;;464.77;174.23;;;;;;;;;;5028004;28;20041;-63
2022/03/26 04:23:54;;;;;;;487.17;186.50;;;;;;;;;;5027749;28;20522;-63
2022/03/26 04:26:21;;;;;;;504.77;185.82;;;;;;;;;;5027355;28;20045;-64
2022/03/26 04:28:47;;;;;;;520.45;186.05;;;;;;;;;;5043579;28;20186;-62
2022/03/26 04:31:13;;;;;;;495.83;184.50;;;;;;;;;;5027962;28;20545;-63
2022/03/26 04:33:39;;;;;;;521.75;187.32;;;;;;;;;;5027021;28;20073;-63
2022/03/26 04:36:05;;;;;;;507.38;189.43;;;;;;;;;;5026002;28;20060;-63
2022/03/26 04:38:32;;;;;;;517.33;181.48;;;;;;;;;;5026179;28;20099;-63
2022/03/26 04:40:58;;;;;;;496.08;170.70;;;;;;;;;;5025723;28;20057;-61
2022/03/26 04:43:24;;;;;;;470.90;174.70;;;;;;;;;;5027041;28;20261;-63
2022/03/26 04:45:50;;;;;;;475.27;169.55;;;;;;;;;;5025109;28;20045;-63
2022/03/26 04:48:16;;;;;;;493.60;170.88;;;;;;;;;;5026392;28;20029;-64
2022/03/26 04:50:42;;;;;;;488.48;174.85;;;;;;;;;;5026152;28;20087;-63
2022/03/26 04:53:09;;;;;;;470.63;168.05;;;;;;;;;;5025586;28;20045;-62
2022/03/26 04:55:35;;;;;;;510.30;174.38;;;;;;;;;;5008213;28;20597;-63
2022/03/26 04:58:02;;;;;;;543.15;183.43;;;;;;;;;;5026534;28;20056;-63
2022/03/26 05:00:28;;;;;;;520.22;181.60;;;;;;;;;;5024345;28;20396;-63
2022/03/26 05:02:55;;;;;;;497.02;168.07;;;;;;;;;;5026683;28;20048;-63
2022/03/26 05:05:21;;;;;;;530.22;183.05;;;;;;;;;;5026763;28;20049;-62
2022/03/26 05:07:47;;;;;;;528.45;179.10;;;;;;;;;;5024764;28;21345;-62
2022/03/26 05:10:17;;;;;;;496.52;178.75;;;;;;;;;;5025141;28;20068;-62
2022/03/26 05:12:44;;;;;;;479.48;179.77;;;;;;;;;;5026883;28;20466;-64
2022/03/26 05:15:11;;;;;;;531.85;188.85;;;;;;;;;;5025208;28;20052;-62
2022/03/26 05:17:37;;;;;;;556.22;196.20;;;;;;;;;;5026548;28;20407;-62
2022/03/26 05:20:04;;;;;;;551.85;198.15;;;;;;;;;;5024673;28;20041;-62
2022/03/26 05:22:30;;;;;;;597.67;196.20;;;;;;;;;;5032167;28;20041;-62
2022/03/26 05:24:56;;;;;;;501.05;177.15;;;;;;;;;;5024831;28;20041;-62
2022/03/26 05:27:22;;;;;;;569.60;197.00;;;;;;;;;;5024684;28;20487;-61
2022/03/26 05:29:49;;;;;;;564.75;189.68;;;;;;;;;;5025716;28;20041;-61
2022/03/26 05:32:16;;;;;;;560.85;190.05;;;;;;;;;;5041363;28;20040;-63
2022/03/26 05:34:42;;;;;;;572.35;193.40;;;;;;;;;;5026473;28;20037;-62
2022/03/26 05:37:08;;;;;;;557.13;189.70;;;;;;;;;;5030090;28;20037;-63
2022/03/26 05:39:34;;;;;;;537.17;184.68;;;;;;;;;;5030252;28;20048;-61
2022/03/26 05:42:01;;;;;;;603.03;198.07;;;;;;;;;;5028779;28;20088;-62
2022/03/26 05:44:27;;;;;;;554.50;189.75;;;;;;;;;;5029915;28;20084;-62
2022/03/26 05:46:53;;;;;;;583.92;183.27;;;;;;;;;;5030289;28;20045;-62
2022/03/26 05:49:19;;;;;;;581.53;184.77;;;;;;;;;;5028852;28;20034;-62
2022/03/26 05:51:46;;;;;;;562.80;193.85;;;;;;;;;;5030107;28;20049;-63
2022/03/26 05:54:12;;;;;;;600.83;193.02;;;;;;;;;;5028545;28;20115;-62
2022/03/26 05:56:38;;;;;;;571.22;190.55;;;;;;;;;;5029176;28;20064;-62
2022/03/26 05:59:05;;;;;;;580.30;192.60;;;;;;;;;;5027954;28;20068;-64
2022/03/26 06:01:31;;;;;;;538.47;186.57;;;;;;;;;;5028572;28;20160;-63
2022/03/26 06:03:58;;;;;;;539.80;184.82;;;;;;;;;;5029021;28;20379;-62
2022/03/26 06:06:24;;;;;;;509.17;178.82;;;;;;;;;;5027483;28;20396;-63
2022/03/26 06:08:50;;;;;;;473.17;166.07;;;;;;;;;;5027704;28;20107;-62
2022/03/26 06:11:16;;;;;;;463.10;159.70;;;;;;;;;;5028588;28;20052;-62
2022/03/26 06:13:42;;;;;;;429.20;161.23;;;;;;;;;;5027336;28;20132;-63
2022/03/26 06:16:08;;;;;;;443.65;164.32;;;;;;;;;;5029052;28;20476;-63
2022/03/26 06:18:34;;;;;;;409.02;148.88;;;;;;;;;;5027487;28;20459;-63
2022/03/26 06:21:00;;;;;;;390.65;149.60;;;;;;;;;;5031376;28;20124;-62
2022/03/26 06:23:26;;;;;;;371.10;149.20;;;;;;;;;;5030159;28;20114;-62
2022/03/26 06:25:53;;;;;;;365.35;152.60;;;;;;;;;;5030614;28;20338;-63
2022/03/26 06:28:19;;;;;;;346.25;142.88;;;;;;;;;;5045286;28;20121;-63
2022/03/26 06:30:48;;;;;;;311.75;138.20;;;;;;;;;;5030537;28;20050;-62
2022/03/26 06:33:16;;;;;;;296.88;139.98;;;;;;;;;;5030277;28;20033;-64
2022/03/26 06:35:51;;;;;;;317.17;144.52;;;;;;;;;;5030122;28;20041;-64
2022/03/26 06:38:17;;;;;;;246.70;123.95;;;;;;;;;;5012246;28;20045;-63
2022/03/26 06:40:43;;;;;;;230.18;120.60;;;;;;;;;;5028493;28;20419;-63
2022/03/26 06:43:09;;;;;;;217.50;116.63;;;;;;;;;;5029319;28;20108;-64
2022/03/26 06:45:35;;;;;;;222.23;117.85;;;;;;;;;;5027873;28;20057;-63
2022/03/26 06:48:02;;;;;;;203.85;111.65;;;;;;;;;;5027220;28;20038;-61
2022/03/26 06:50:28;;;;;;;191.05;108.80;;;;;;;;;;5027117;28;20033;-62
2022/03/26 06:52:55;;;;;;;180.80;107.28;;;;;;;;;;5044032;28;20117;-62
2022/03/26 06:55:21;;;;;;;174.90;102.32;;;;;;;;;;5027553;28;20069;-62
2022/03/26 06:57:49;;;;;;;164.65;99.55;;;;;;;;;;5027751;28;20136;-62
2022/03/26 07:00:16;;;;;;;161.23;99.65;;;;;;;;;;5029883;28;20048;-63
2022/03/26 07:02:42;;;;;;;149.23;95.38;;;;;;;;;;5029724;28;20048;-62
2022/03/26 07:05:09;;;;;;;148.43;97.15;;;;;;;;;;5029596;28;20124;-62
2022/03/26 07:07:35;;;;;;;142.48;94.70;;;;;;;;;;5029760;28;20038;-63
2022/03/26 07:10:01;;;;;;;137.55;89.13;;;;;;;;;;5030004;28;20048;-62
2022/03/26 07:12:27;;;;;;;127.03;84.78;;;;;;;;;;5028551;28;20029;-63
2022/03/26 07:14:53;;;;;;;130.52;85.93;;;;;;;;;;5028828;28;20497;-64
2022/03/26 07:17:19;;;;;;;122.22;83.85;;;;;;;;;;5029894;28;20049;-62
2022/03/26 07:19:45;;;;;;;116.72;81.68;;;;;;;;;;5029566;28;20045;-62
2022/03/26 07:22:11;;;;;;;119.75;80.45;;;;;;;;;;5044607;28;20041;-62
2022/03/26 07:24:38;;;;;;;111.60;80.03;;;;;;;;;;5029346;28;20052;-63
2022/03/26 07:27:04;;;;;;;109.30;78.50;;;;;;;;;;5027427;28;20076;-62
2022/03/26 07:29:30;;;;;;;111.55;77.43;;;;;;;;;;5023471;28;20037;-64
2022/03/26 07:31:56;;;;;;;114.53;80.80;;;;;;;;;;5029028;28;20575;-63
2022/03/26 07:34:22;;;;;;;107.43;77.60;;;;;;;;;;5029458;28;20120;-63
2022/03/26 07:36:48;;;;;;;100.07;72.80;;;;;;;;;;5008913;28;20091;-62
2022/03/26 07:39:16;;;;;;;105.32;75.57;;;;;;;;;;5026708;28;20065;-63
2022/03/26 07:41:42;;;;;;;108.10;77.18;;;;;;;;;;5010101;28;20500;-63
2022/03/26 07:44:08;;;;;;;101.70;74.70;;;;;;;;;;5023218;28;20052;-62
2022/03/26 07:46:34;;;;;;;99.10;73.38;;;;;;;;;;5029055;28;20048;-62
2022/03/26 07:49:01;;;;;;;95.80;70.35;;;;;;;;;;5028745;28;20130;-63
2022/03/26 07:51:27;;;;;;;89.97;67.53;;;;;;;;;;5029170;28;20041;-63
2022/03/26 07:53:53;;;;;;;89.05;66.15;;;;;;;;;;5028577;28;20067;-64
2022/03/26 07:56:19;;;;;;;95.25;66.97;;;;;;;;;;5027728;28;20049;-62
2022/03/26 07:58:47;;;;;;;89.13;66.70;;;;;;;;;;5027999;28;20128;-62
2022/03/26 08:01:13;;;;;;;82.28;62.97;;;;;;;;;;5025603;28;20068;-62
2022/03/26 08:03:39;;;;;;;83.53;62.47;;;;;;;;;;5020332;28;20372;-63
2022/03/26 08:06:05;;;;;;;82.47;62.38;;;;;;;;;;5035377;28;20063;-62
2022/03/26 08:08:31;;;;;;;81.53;62.95;;;;;;;;;;5029828;28;20077;-62
2022/03/26 08:10:58;;;;;;;84.05;62.67;;;;;;;;;;5029443;28;20034;-63
2022/03/26 08:13:24;;;;;;;84.75;61.60;;;;;;;;;;5029338;28;20044;-63
2022/03/26 08:15:50;;;;;;;79.68;61.85;;;;;;;;;;5027621;28;20048;-64
2022/03/26 08:18:16;;;;;;;77.25;60.17;;;;;;;;;;5028828;28;20060;-63
2022/03/26 08:20:44;;;;;;;74.20;56.65;;;;;;;;;;5029227;28;20120;-64
2022/03/26 08:23:10;;;;;;;78.00;58.38;;;;;;;;;;5027797;28;20045;-64
2022/03/26 08:28:20;;;;;;;67.82;51.13;;;;;;;;;;5027571;28;20099;-63
2022/03/26 08:30:46;;;;;;;65.70;51.67;;;;;;;;;;5008029;28;20504;-62
2022/03/26 08:33:13;;;;;;;61.67;50.83;;;;;;;;;;5026322;28;20045;-63
2022/03/26 08:35:40;;;;;;;59.83;48.22;;;;;;;;;;5026605;28;20562;-62
2022/03/26 08:38:06;;;;;;;63.80;47.65;;;;;;;;;;5025956;28;20122;-62
2022/03/26 08:40:32;;;;;;;57.88;45.40;;;;;;;;;;5029417;28;20076;-62
2022/03/26 08:42:59;;;;;;;54.30;45.38;;;;;;;;;;5029953;28;20057;-62
2022/03/26 08:45:29;;;;;;;56.85;45.22;;;;;;;;;;5028389;28;20041;-61
2022/03/26 08:47:55;;;;;;;57.35;45.55;;;;;;;;;;5029159;28;20152;-62
2022/03/26 08:50:21;;;;;;;52.28;43.30;;;;;;;;;;5029402;28;20082;-63
2022/03/26 08:52:47;;;;;;;45.28;36.40;;;;;;;;;;5029264;28;20502;-63
2022/03/26 08:55:14;;;;;;;42.58;34.90;;;;;;;;;;5027557;28;20041;-62
2022/03/26 08:57:41;;;;;;;41.15;34.25;;;;;;;;;;5027443;28;20512;-62
2022/03/26 09:00:09;;;;;;;39.35;33.35;;;;;;;;;;5027921;28;20045;-62
2022/03/26 09:02:35;;;;;;;33.63;28.33;;;;;;;;;;5044162;28;20041;-63
2022/03/26 09:05:01;;;;;;;30.85;26.90;;;;;;;;;;5011413;28;20045;-63
2022/03/26 09:07:27;;;;;;;32.22;25.65;;;;;;;;;;5027373;28;20041;-62
2022/03/26 09:09:53;;;;;;;32.58;28.85;;;;;;;;;;5028735;28;20126;-64
2022/03/26 09:12:19;;;;;;;36.15;28.42;;;;;;;;;;5032061;28;20037;-63
2022/03/26 09:14:45;;;;;;;34.08;29.42;;;;;;;;;;5033066;28;20037;-62
2022/03/26 09:17:12;;;;;;;34.95;30.75;;;;;;;;;;5033426;28;20426;-63
2022/03/26 09:19:38;;;;;;;30.65;26.98;;;;;;;;;;5033139;28;20052;-63
2022/03/26 09:22:04;;;;;;;28.52;23.98;;;;;;;;;;5032956;28;20041;-63
2022/03/26 09:24:30;;;;;;;27.38;22.02;;;;;;;;;;5031457;28;20033;-63
2022/03/26 09:26:56;;;;;;;24.80;21.38;;;;;;;;;;5015220;28;20041;-61
2022/03/26 09:29:22;;;;;;;26.00;19.83;;;;;;;;;;5032739;28;20478;-62
2022/03/26 09:31:48;;;;;;;23.05;19.05;;;;;;;;;;5033816;28;20076;-61
2022/03/26 09:34:14;;;;;;;23.95;20.25;;;;;;;;;;5033961;28;20495;-62
2022/03/26 09:36:41;;;;;;;25.17;21.75;;;;;;;;;;5033744;28;20503;-62
2022/03/26 09:39:07;;;;;;;22.90;18.65;;;;;;;;;;5048972;28;20049;-61
2022/03/26 09:41:33;;;;;;;22.27;18.52;;;;;;;;;;5033128;28;20061;-62
2022/03/26 09:43:59;;;;;;;22.27;16.50;;;;;;;;;;5032252;28;20045;-62
2022/03/26 09:46:26;;;;;;;17.92;13.30;;;;;;;;;;5033350;28;20048;-60
2022/03/26 09:48:52;;;;;;;16.02;13.27;;;;;;;;;;5033753;28;20037;-61
2022/03/26 09:51:23;;;;;;;15.93;12.23;;;;;;;;;;5033199;28;20034;-61
2022/03/26 09:53:50;;;;;;;14.13;11.15;;;;;;;;;;5032045;28;20452;-60
2022/03/26 09:56:17;;;;;;;13.57;10.95;;;;;;;;;;5033072;28;20045;-62
2022/03/26 09:58:43;;;;;;;12.43;9.38;;;;;;;;;;5015287;28;20053;-61
2022/03/26 10:01:09;;;;;;;11.93;8.20;;;;;;;;;;5032076;28;20191;-61
2022/03/26 10:03:40;;;;;;;12.50;8.07;;;;;;;;;;5033172;28;20045;-62
2022/03/26 10:06:07;;;;;;;11.52;8.32;;;;;;;;;;5033138;28;20049;-62
2022/03/26 10:08:37;;;;;;;9.90;7.93;;;;;;;;;;5031334;28;20053;-62
2022/03/26 10:11:03;;;;;;;8.63;6.72;;;;;;;;;;5031822;28;20053;-61
2022/03/26 10:13:33;;;;;;;9.07;7.15;;;;;;;;;;5031834;28;20120;-60
2022/03/26 10:16:00;;;;;;;10.38;6.22;;;;;;;;;;5033346;28;20540;-61
2022/03/26 10:18:26;;;;;;;6.68;5.63;;;;;;;;;;5033213;28;20064;-61
2022/03/26 10:21:01;;;;;;;8.57;6.28;;;;;;;;;;5032351;28;20041;-62
2022/03/26 10:23:30;;;;;;;6.88;5.97;;;;;;;;;;5032790;28;20041;-62
2022/03/26 10:26:07;;;;;;;7.30;5.88;;;;;;;;;;5031094;28;20045;-62
2022/03/26 10:28:33;;;;;;;8.02;6.40;;;;;;;;;;5032560;28;20535;-61
2022/03/26 10:34:02;;;;;;;8.50;6.78;;;;;;;;;;5031052;28;20095;-62
2022/03/26 10:36:28;;;;;;;8.07;6.77;;;;;;;;;;5032703;28;20037;-61
2022/03/26 10:38:54;;;;;;;7.97;5.45;;;;;;;;;;5014528;28;20049;-61
2022/03/26 10:41:21;;;;;;;7.85;6.38;;;;;;;;;;5032185;28;20057;-61
2022/03/26 10:43:47;;;;;;;8.73;5.93;;;;;;;;;;5030128;28;20057;-62
2022/03/26 10:46:22;;;;;;;7.47;5.90;;;;;;;;;;5046206;28;20411;-61
2022/03/26 10:49:01;;;;;;;7.95;6.25;;;;;;;;;;5031214;28;20073;-61
2022/03/26 10:51:27;;;;;;;7.75;5.38;;;;;;;;;;5025684;28;20040;-62
2022/03/26 10:53:56;;;;;;;7.28;6.57;;;;;;;;;;5030500;28;20120;-62
2022/03/26 10:56:24;;;;;;;6.97;5.80;;;;;;;;;;5030045;28;20053;-61
2022/03/26 10:58:50;;;;;;;8.25;6.15;;;;;;;;;;5030782;28;20411;-61
2022/03/26 11:01:16;;;;;;;11.90;7.78;;;;;;;;;;5030312;28;20570;-62
2022/03/26 11:03:43;;;;;;;8.63;7.45;;;;;;;;;;5028829;28;20045;-63
2022/03/26 11:06:10;;;;;;;7.75;6.40;;;;;;;;;;5029653;28;20577;-61
2022/03/26 11:08:36;;;;;;;8.65;6.90;;;;;;;;;;5029017;28;20049;-61
2022/03/26 11:11:06;;;;;;;9.50;6.78;;;;;;;;;;5028657;28;20042;-62
2022/03/26 11:13:34;;;;;;;8.85;6.57;;;;;;;;;;5044313;28;20874;-62
2022/03/26 11:16:02;;;;;;;9.25;6.93;;;;;;;;;;5030591;28;20077;-61
2022/03/26 11:18:37;;;;;;;7.60;6.15;;;;;;;;;;5026940;28;20052;-61
2022/03/26 11:21:06;;;;;;;8.93;6.68;;;;;;;;;;5028845;28;20440;-62
2022/03/26 11:23:40;;;;;;;8.57;6.07;;;;;;;;;;5029069;28;20404;-62
2022/03/26 11:26:19;;;;;;;8.95;7.00;;;;;;;;;;5027881;28;20064;-62
2022/03/26 11:29:00;;;;;;;9.45;7.72;;;;;;;;;;5029672;28;20427;-61
2022/03/26 11:31:32;;;;;;;9.57;7.47;;;;;;;;;;5041652;28;20046;-61
2022/03/26 11:34:06;;;;;;;9.37;8.00;;;;;;;;;;5019543;28;20144;-63
2022/03/26 11:36:33;;;;;;;10.48;7.30;;;;;;;;;;5030105;28;20280;-63
2022/03/26 11:39:11;;;;;;;9.70;7.22;;;;;;;;;;5029053;28;20053;-64
2022/03/26 11:41:37;;;;;;;9.77;6.85;;;;;;;;;;5011792;28;20112;-62
2022/03/26 11:44:05;;;;;;;9.07;7.28;;;;;;;;;;5028898;28;20051;-62
2022/03/26 11:52:30;;;;;;;8.73;6.38;;;;;;;;;;5025641;28;20457;-63
2022/03/26 11:55:00;;;;;;;11.25;6.60;;;;;;;;;;5028297;28;20041;-63
2022/03/26 11:57:27;;;;;;;9.95;6.38;;;;;;;;;;5027551;28;20458;-63
2022/03/26 11:59:53;;;;;;;10.95;6.50;;;;;;;;;;5028770;28;20099;-62
2022/03/26 12:02:34;;;;;;;12.20;7.10;;;;;;;;;;5012378;28;20052;-63
2022/03/26 12:06:36;;;;;;;9.05;6.40;;;;;;;;;;5030112;28;20484;-62
2022/03/26 12:07:51;;;;;;;8.93;5.00;;;;;;;;;;5029674;28;20152;-64
2022/03/26 12:10:20;;;;;;;8.27;5.10;;;;;;;;;;5028550;28;20045;-62
2022/03/26 12:12:51;;;;;;;8.18;5.10;;;;;;;;;;5030162;28;20403;-64
2022/03/26 12:15:17;;;;;;;9.10;5.93;;;;;;;;;;5012065;28;20045;-63
2022/03/26 12:17:45;;;;;;;9.13;6.57;;;;;;;;;;5029703;28;20107;-62
2022/03/26 12:20:19;;;;;;;7.45;5.70;;;;;;;;;;5028215;28;20099;-63
2022/03/26 12:22:45;;;;;;;9.75;6.10;;;;;;;;;;5028314;28;20053;-63
2022/03/26 12:25:16;;;;;;;10.10;5.97;;;;;;;;;;5028046;28;20049;-63
2022/03/26 12:27:45;;;;;;;11.60;5.28;;;;;;;;;;5029348;28;20045;-63
2022/03/26 12:30:13;;;;;;;10.80;4.90;;;;;;;;;;5029615;28;20499;-62
2022/03/26 12:32:41;;;;;;;9.25;5.15;;;;;;;;;;5028298;28;20427;-63
2022/03/26 12:35:09;;;;;;;9.70;5.53;;;;;;;;;;5028604;28;20387;-63
2022/03/26 12:37:35;;;;;;;6.80;4.13;;;;;;;;;;5029166;28;20178;-63
2022/03/26 12:40:02;;;;;;;7.50;4.57;;;;;;;;;;5029395;28;20045;-63
2022/03/26 12:42:28;;;;;;;4.05;2.60;;;;;;;;;;5029259;28;20057;-64
2022/03/26 12:44:54;;;;;;;6.30;2.92;;;;;;;;;;5027802;28;20506;-63
2022/03/26 12:47:27;;;;;;;5.75;2.70;;;;;;;;;;5029147;28;20083;-63
2022/03/26 12:49:54;;;;;;;5.80;2.90;;;;;;;;;;5029714;28;20056;-63
2022/03/26 12:52:21;;;;;;;7.22;3.50;;;;;;;;;;5028011;28;20041;-63
2022/03/26 12:55:07;;;;;;;7.35;3.95;;;;;;;;;;5029080;28;20125;-63
2022/03/26 13:00:22;;;;;;;7.82;4.88;;;;;;;;;;5042145;28;20060;-62
2022/03/26 13:02:59;;;;;;;8.18;5.00;;;;;;;;;;5028038;28;20455;-63
2022/03/26 13:05:28;;;;;;;9.68;5.25;;;;;;;;;;5029246;28;20084;-63
2022/03/26 13:07:56;;;;;;;9.45;4.50;;;;;;;;;;5027532;28;20503;-61
2022/03/26 13:10:48;;;;;;;7.28;4.15;;;;;;;;;;5027964;28;20041;-62
2022/03/26 13:13:14;;;;;;;7.03;4.30;;;;;;;;;;5028619;28;20069;-62
2022/03/26 13:15:40;;;;;;;8.48;4.22;;;;;;;;;;5011184;28;20119;-63
2022/03/26 13:18:07;;;;;;;5.07;4.05;;;;;;;;;;5027657;28;20500;-63
2022/03/26 13:20:35;;;;;;;7.63;5.05;;;;;;;;;;5027475;28;20053;-63
2022/03/26 13:23:05;;;;;;;7.32;5.32;;;;;;;;;;5029213;28;20450;-63
2022/03/26 13:25:33;;;;;;;7.13;5.20;;;;;;;;;;5010843;28;20048;-63
2022/03/26 13:28:17;;;;;;;7.65;4.93;;;;;;;;;;5027445;28;20437;-62
2022/03/26 13:30:44;;;;;;;8.63;5.40;;;;;;;;;;5027472;28;20107;-62
2022/03/26 13:33:15;;;;;;;7.72;5.15;;;;;;;;;;5027562;28;20488;-63
2022/03/26 13:35:46;;;;;;;9.05;4.88;;;;;;;;;;5027405;28;20045;-63
2022/03/26 13:38:12;;;;;;;8.85;5.30;;;;;;;;;;5029178;28;20045;-62
2022/03/26 13:40:39;;;;;;;8.65;4.63;;;;;;;;;;5027296;28;20500;-63
2022/03/26 13:43:11;;;;;;;7.55;3.28;;;;;;;;;;5027309;28;20132;-64
2022/03/26 13:45:37;;;;;;;5.05;3.15;;;;;;;;;;5027657;28;20052;-61
2022/03/26 13:48:03;;;;;;;5.47;2.35;;;;;;;;;;5044274;28;20049;-61
2022/03/26 13:50:29;;;;;;;7.53;2.72;;;;;;;;;;5029280;28;20093;-62
2022/03/26 13:52:56;;;;;;;5.88;2.30;;;;;;;;;;5028058;28;20044;-62
2022/03/26 13:55:29;;;;;;;4.60;1.92;;;;;;;;;;5029034;28;20045;-62
2022/03/26 13:57:57;;;;;;;4.68;1.75;;;;;;;;;;5031541;28;20104;-62
2022/03/26 14:00:24;;;;;;;5.82;2.45;;;;;;;;;;5032766;28;20045;-62
2022/03/26 14:02:51;;;;;;;4.35;2.13;;;;;;;;;;5033207;28;20399;-60
2022/03/26 14:05:26;;;;;;;5.75;2.72;;;;;;;;;;5032918;28;20037;-62
2022/03/26 14:07:53;;;;;;;5.47;2.40;;;;;;;;;;5030913;28;20046;-62
2022/03/26 14:10:29;;;;;;;4.78;2.10;;;;;;;;;;5032686;28;20068;-62
2022/03/26 14:12:55;;;;;;;4.72;2.55;;;;;;;;;;5032708;28;20045;-62
2022/03/26 14:15:21;;;;;;;5.53;2.38;;;;;;;;;;5031278;28;20439;-62
2022/03/26 14:17:47;;;;;;;4.05;2.10;;;;;;;;;;5030975;28;20419;-61
2022/03/26 14:20:13;;;;;;;6.40;2.40;;;;;;;;;;5031162;28;20129;-62
2022/03/26 14:22:39;;;;;;;7.55;2.25;;;;;;;;;;5030619;28;20051;-62
2022/03/26 14:25:06;;;;;;;5.25;1.65;;;;;;;;;;5031720;28;20038;-62